sensor_id;sensor_type;location;lat;lon;timestamp;P1;durP1;ratioP1;P2;durP2;ratioP2
54735;SDS011;40632;51.442;11.936;2022-09-27T00:01:38;2.22;;;1.38;;
54735;SDS011;40632;51.442;11.936;2022-09-27T00:04:03;3.38;;;1.35;;
54735;SDS011;40632;51.442;11.936;2022-09-27T00:06:31;2.15;;;1.80;;
54735;SDS011;40632;51.442;11.936;2022-09-27T00:08:57;2.97;;;1.60;;
54735;SDS011;40632;51.442;11.936;2022-09-27T00:11:25;2.58;;;1.48;;
54735;SDS011;40632;51.442;11.936;2022-09-27T00:13:52;2.63;;;1.48;;
54735;SDS011;40632;51.442;11.936;2022-09-27T00:16:18;3.35;;;1.25;;
54735;SDS011;40632;51.442;11.936;2022-09-27T00:18:45;1.52;;;1.20;;
54735;SDS011;40632;51.442;11.936;2022-09-27T00:21:11;2.53;;;1.40;;
54735;SDS011;40632;51.442;11.936;2022-09-27T00:23:40;2.78;;;1.55;;
54735;SDS011;40632;51.442;11.936;2022-09-27T00:26:06;2.58;;;1.40;;
54735;SDS011;40632;51.442;11.936;2022-09-27T00:28:34;1.92;;;1.63;;
54735;SDS011;40632;51.442;11.936;2022-09-27T00:31:00;2.33;;;1.60;;
54735;SDS011;40632;51.442;11.936;2022-09-27T00:33:26;2.65;;;1.58;;
54735;SDS011;40632;51.442;11.936;2022-09-27T00:35:52;2.28;;;1.58;;
54735;SDS011;40632;51.442;11.936;2022-09-27T00:38:18;3.40;;;1.42;;
54735;SDS011;40632;51.442;11.936;2022-09-27T00:40:46;1.63;;;1.27;;
54735;SDS011;40632;51.442;11.936;2022-09-27T00:43:13;4.65;;;1.45;;
54735;SDS011;40632;51.442;11.936;2022-09-27T00:45:41;2.05;;;1.52;;
54735;SDS011;40632;51.442;11.936;2022-09-27T00:48:09;3.75;;;1.90;;
54735;SDS011;40632;51.442;11.936;2022-09-27T00:50:40;4.18;;;1.70;;
54735;SDS011;40632;51.442;11.936;2022-09-27T00:53:11;3.83;;;1.40;;
54735;SDS011;40632;51.442;11.936;2022-09-27T00:55:42;2.50;;;1.25;;
54735;SDS011;40632;51.442;11.936;2022-09-27T00:58:14;2.03;;;1.15;;
54735;SDS011;40632;51.442;11.936;2022-09-27T01:00:44;1.58;;;1.10;;
54735;SDS011;40632;51.442;11.936;2022-09-27T01:03:13;3.63;;;1.02;;
54735;SDS011;40632;51.442;11.936;2022-09-27T01:05:47;2.28;;;1.30;;
54735;SDS011;40632;51.442;11.936;2022-09-27T01:08:13;2.90;;;1.55;;
54735;SDS011;40632;51.442;11.936;2022-09-27T01:10:39;2.20;;;1.15;;
54735;SDS011;40632;51.442;11.936;2022-09-27T01:13:19;2.17;;;1.20;;
54735;SDS011;40632;51.442;11.936;2022-09-27T01:15:51;1.90;;;1.25;;
54735;SDS011;40632;51.442;11.936;2022-09-27T01:18:29;2.95;;;1.25;;
54735;SDS011;40632;51.442;11.936;2022-09-27T01:27:17;1.95;;;1.25;;
54735;SDS011;40632;51.442;11.936;2022-09-27T01:30:20;2.60;;;1.30;;
54735;SDS011;40632;51.442;11.936;2022-09-27T01:32:48;2.83;;;1.40;;
54735;SDS011;40632;51.442;11.936;2022-09-27T01:35:20;2.33;;;1.60;;
54735;SDS011;40632;51.442;11.936;2022-09-27T01:37:51;2.95;;;1.48;;
54735;SDS011;40632;51.442;11.936;2022-09-27T01:40:29;2.90;;;1.33;;
54735;SDS011;40632;51.442;11.936;2022-09-27T01:43:02;6.10;;;1.55;;
54735;SDS011;40632;51.442;11.936;2022-09-27T01:45:36;2.22;;;1.30;;
54735;SDS011;40632;51.442;11.936;2022-09-27T01:48:07;3.67;;;1.10;;
54735;SDS011;40632;51.442;11.936;2022-09-27T01:50:37;2.58;;;1.20;;
54735;SDS011;40632;51.442;11.936;2022-09-27T01:53:08;1.30;;;0.90;;
54735;SDS011;40632;51.442;11.936;2022-09-27T01:55:37;1.80;;;0.95;;
54735;SDS011;40632;51.442;11.936;2022-09-27T01:58:06;2.53;;;1.00;;
54735;SDS011;40632;51.442;11.936;2022-09-27T02:00:39;1.58;;;0.80;;
54735;SDS011;40632;51.442;11.936;2022-09-27T02:03:10;1.55;;;1.08;;
54735;SDS011;40632;51.442;11.936;2022-09-27T02:05:39;0.73;;;0.63;;
54735;SDS011;40632;51.442;11.936;2022-09-27T02:08:12;1.92;;;0.80;;
54735;SDS011;40632;51.442;11.936;2022-09-27T02:10:42;0.90;;;0.80;;
54735;SDS011;40632;51.442;11.936;2022-09-27T02:13:12;1.48;;;0.60;;
54735;SDS011;40632;51.442;11.936;2022-09-27T02:15:48;1.52;;;0.80;;
54735;SDS011;40632;51.442;11.936;2022-09-27T02:18:22;1.10;;;0.70;;
54735;SDS011;40632;51.442;11.936;2022-09-27T02:20:54;1.15;;;0.90;;
54735;SDS011;40632;51.442;11.936;2022-09-27T02:23:24;1.58;;;0.80;;
54735;SDS011;40632;51.442;11.936;2022-09-27T02:25:57;2.35;;;0.70;;
54735;SDS011;40632;51.442;11.936;2022-09-27T02:28:28;0.75;;;0.60;;
54735;SDS011;40632;51.442;11.936;2022-09-27T02:31:06;0.60;;;0.60;;
54735;SDS011;40632;51.442;11.936;2022-09-27T02:33:33;1.50;;;0.80;;
54735;SDS011;40632;51.442;11.936;2022-09-27T02:36:01;5.35;;;0.98;;
54735;SDS011;40632;51.442;11.936;2022-09-27T02:38:27;1.55;;;0.80;;
54735;SDS011;40632;51.442;11.936;2022-09-27T02:40:53;1.73;;;0.90;;
54735;SDS011;40632;51.442;11.936;2022-09-27T02:43:19;2.25;;;0.80;;
54735;SDS011;40632;51.442;11.936;2022-09-27T02:45:52;1.63;;;0.90;;
54735;SDS011;40632;51.442;11.936;2022-09-27T02:48:30;1.33;;;0.90;;
54735;SDS011;40632;51.442;11.936;2022-09-27T02:54:05;1.58;;;1.00;;
54735;SDS011;40632;51.442;11.936;2022-09-27T02:56:42;2.58;;;1.10;;
54735;SDS011;40632;51.442;11.936;2022-09-27T02:59:19;2.67;;;1.10;;
54735;SDS011;40632;51.442;11.936;2022-09-27T03:01:55;2.40;;;0.95;;
54735;SDS011;40632;51.442;11.936;2022-09-27T03:04:31;1.20;;;0.90;;
54735;SDS011;40632;51.442;11.936;2022-09-27T03:07:01;2.72;;;1.17;;
54735;SDS011;40632;51.442;11.936;2022-09-27T03:09:28;1.48;;;0.80;;
54735;SDS011;40632;51.442;11.936;2022-09-27T03:12:03;1.80;;;0.90;;
54735;SDS011;40632;51.442;11.936;2022-09-27T03:14:29;2.03;;;0.88;;
54735;SDS011;40632;51.442;11.936;2022-09-27T03:16:55;1.23;;;0.77;;
54735;SDS011;40632;51.442;11.936;2022-09-27T03:19:20;1.98;;;1.02;;
54735;SDS011;40632;51.442;11.936;2022-09-27T03:21:49;1.65;;;1.08;;
54735;SDS011;40632;51.442;11.936;2022-09-27T03:24:14;2.70;;;0.90;;
54735;SDS011;40632;51.442;11.936;2022-09-27T03:26:40;3.45;;;1.10;;
54735;SDS011;40632;51.442;11.936;2022-09-27T03:29:06;1.42;;;1.00;;
54735;SDS011;40632;51.442;11.936;2022-09-27T03:31:31;0.88;;;0.77;;
54735;SDS011;40632;51.442;11.936;2022-09-27T03:33:57;3.42;;;1.02;;
54735;SDS011;40632;51.442;11.936;2022-09-27T03:36:22;1.90;;;1.10;;
54735;SDS011;40632;51.442;11.936;2022-09-27T03:38:51;1.60;;;1.00;;
54735;SDS011;40632;51.442;11.936;2022-09-27T03:41:16;1.38;;;0.95;;
54735;SDS011;40632;51.442;11.936;2022-09-27T03:43:42;1.20;;;0.80;;
54735;SDS011;40632;51.442;11.936;2022-09-27T03:46:08;1.38;;;0.88;;
54735;SDS011;40632;51.442;11.936;2022-09-27T03:48:33;1.58;;;1.08;;
54735;SDS011;40632;51.442;11.936;2022-09-27T03:50:59;2.13;;;1.10;;
54735;SDS011;40632;51.442;11.936;2022-09-27T03:53:24;1.40;;;0.98;;
54735;SDS011;40632;51.442;11.936;2022-09-27T03:55:53;3.75;;;0.88;;
54735;SDS011;40632;51.442;11.936;2022-09-27T03:58:18;1.75;;;1.00;;
54735;SDS011;40632;51.442;11.936;2022-09-27T04:00:44;2.33;;;1.10;;
54735;SDS011;40632;51.442;11.936;2022-09-27T04:03:10;1.90;;;1.27;;
54735;SDS011;40632;51.442;11.936;2022-09-27T04:05:36;1.15;;;0.95;;
54735;SDS011;40632;51.442;11.936;2022-09-27T04:08:02;2.75;;;1.45;;
54735;SDS011;40632;51.442;11.936;2022-09-27T04:10:27;2.50;;;1.35;;
54735;SDS011;40632;51.442;11.936;2022-09-27T04:12:56;2.28;;;1.48;;
54735;SDS011;40632;51.442;11.936;2022-09-27T04:15:21;2.65;;;1.35;;
54735;SDS011;40632;51.442;11.936;2022-09-27T04:17:47;2.00;;;1.40;;
54735;SDS011;40632;51.442;11.936;2022-09-27T04:20:12;3.35;;;1.80;;
54735;SDS011;40632;51.442;11.936;2022-09-27T04:22:38;1.23;;;1.10;;
54735;SDS011;40632;51.442;11.936;2022-09-27T04:25:05;1.25;;;1.00;;
54735;SDS011;40632;51.442;11.936;2022-09-27T04:27:32;3.28;;;1.00;;
54735;SDS011;40632;51.442;11.936;2022-09-27T04:30:00;1.00;;;0.77;;
54735;SDS011;40632;51.442;11.936;2022-09-27T04:32:25;2.53;;;0.88;;
54735;SDS011;40632;51.442;11.936;2022-09-27T04:34:51;1.42;;;0.90;;
54735;SDS011;40632;51.442;11.936;2022-09-27T04:37:17;1.33;;;0.90;;
54735;SDS011;40632;51.442;11.936;2022-09-27T04:39:42;1.20;;;0.77;;
54735;SDS011;40632;51.442;11.936;2022-09-27T04:42:08;1.17;;;0.70;;
54735;SDS011;40632;51.442;11.936;2022-09-27T04:44:33;2.45;;;0.70;;
54735;SDS011;40632;51.442;11.936;2022-09-27T04:47:02;1.80;;;0.70;;
54735;SDS011;40632;51.442;11.936;2022-09-27T04:49:27;1.73;;;0.98;;
54735;SDS011;40632;51.442;11.936;2022-09-27T04:51:53;2.72;;;0.80;;
54735;SDS011;40632;51.442;11.936;2022-09-27T04:54:18;1.83;;;1.08;;
54735;SDS011;40632;51.442;11.936;2022-09-27T04:56:44;1.40;;;0.80;;
54735;SDS011;40632;51.442;11.936;2022-09-27T04:59:10;1.42;;;0.90;;
54735;SDS011;40632;51.442;11.936;2022-09-27T05:01:35;1.90;;;1.00;;
54735;SDS011;40632;51.442;11.936;2022-09-27T05:04:04;2.53;;;1.90;;
54735;SDS011;40632;51.442;11.936;2022-09-27T05:06:29;3.15;;;1.60;;
54735;SDS011;40632;51.442;11.936;2022-09-27T05:08:55;3.00;;;2.20;;
54735;SDS011;40632;51.442;11.936;2022-09-27T05:11:21;3.83;;;2.00;;
54735;SDS011;40632;51.442;11.936;2022-09-27T05:13:46;2.50;;;1.77;;
54735;SDS011;40632;51.442;11.936;2022-09-27T05:16:12;2.20;;;1.98;;
54735;SDS011;40632;51.442;11.936;2022-09-27T05:18:37;3.17;;;2.05;;
54735;SDS011;40632;51.442;11.936;2022-09-27T05:21:06;3.10;;;2.15;;
54735;SDS011;40632;51.442;11.936;2022-09-27T05:23:31;5.00;;;1.92;;
54735;SDS011;40632;51.442;11.936;2022-09-27T05:25:57;5.95;;;2.78;;
54735;SDS011;40632;51.442;11.936;2022-09-27T05:28:23;3.58;;;2.60;;
54735;SDS011;40632;51.442;11.936;2022-09-27T05:30:48;4.75;;;2.65;;
54735;SDS011;40632;51.442;11.936;2022-09-27T05:33:14;3.25;;;2.30;;
54735;SDS011;40632;51.442;11.936;2022-09-27T05:35:39;3.70;;;2.72;;
54735;SDS011;40632;51.442;11.936;2022-09-27T05:38:08;3.38;;;2.35;;
54735;SDS011;40632;51.442;11.936;2022-09-27T05:40:33;3.42;;;2.40;;
54735;SDS011;40632;51.442;11.936;2022-09-27T05:42:59;3.05;;;1.90;;
54735;SDS011;40632;51.442;11.936;2022-09-27T05:45:24;2.95;;;2.22;;
54735;SDS011;40632;51.442;11.936;2022-09-27T05:47:54;1.83;;;1.48;;
54735;SDS011;40632;51.442;11.936;2022-09-27T05:50:20;3.03;;;1.45;;
54735;SDS011;40632;51.442;11.936;2022-09-27T05:52:46;2.35;;;1.17;;
54735;SDS011;40632;51.442;11.936;2022-09-27T05:55:14;1.20;;;0.90;;
54735;SDS011;40632;51.442;11.936;2022-09-27T05:57:40;2.75;;;0.90;;
54735;SDS011;40632;51.442;11.936;2022-09-27T06:00:07;1.77;;;0.82;;
54735;SDS011;40632;51.442;11.936;2022-09-27T06:02:33;0.90;;;0.70;;
54735;SDS011;40632;51.442;11.936;2022-09-27T06:04:59;2.05;;;0.70;;
54735;SDS011;40632;51.442;11.936;2022-09-27T06:07:25;1.05;;;0.90;;
54735;SDS011;40632;51.442;11.936;2022-09-27T06:09:50;3.00;;;2.10;;
54735;SDS011;40632;51.442;11.936;2022-09-27T06:12:18;0.77;;;0.60;;
54735;SDS011;40632;51.442;11.936;2022-09-27T06:14:44;1.08;;;0.60;;
54735;SDS011;40632;51.442;11.936;2022-09-27T06:17:10;0.75;;;0.50;;
54735;SDS011;40632;51.442;11.936;2022-09-27T06:19:35;0.90;;;0.57;;
54735;SDS011;40632;51.442;11.936;2022-09-27T06:22:01;1.30;;;0.70;;
54735;SDS011;40632;51.442;11.936;2022-09-27T06:24:27;0.60;;;0.50;;
54735;SDS011;40632;51.442;11.936;2022-09-27T06:26:52;1.23;;;0.98;;
54735;SDS011;40632;51.442;11.936;2022-09-27T06:29:21;2.83;;;0.30;;
54735;SDS011;40632;51.442;11.936;2022-09-27T06:31:46;2.97;;;0.57;;
54735;SDS011;40632;51.442;11.936;2022-09-27T06:34:12;1.15;;;0.50;;
54735;SDS011;40632;51.442;11.936;2022-09-27T06:36:37;1.60;;;0.50;;
54735;SDS011;40632;51.442;11.936;2022-09-27T06:39:03;1.10;;;0.40;;
54735;SDS011;40632;51.442;11.936;2022-09-27T06:41:29;1.70;;;0.45;;
54735;SDS011;40632;51.442;11.936;2022-09-27T06:43:55;3.17;;;0.95;;
54735;SDS011;40632;51.442;11.936;2022-09-27T06:46:23;0.77;;;0.60;;
54735;SDS011;40632;51.442;11.936;2022-09-27T06:48:48;1.17;;;0.63;;
54735;SDS011;40632;51.442;11.936;2022-09-27T06:51:14;2.45;;;0.90;;
54735;SDS011;40632;51.442;11.936;2022-09-27T06:53:40;2.97;;;0.80;;
54735;SDS011;40632;51.442;11.936;2022-09-27T06:56:05;1.55;;;0.90;;
54735;SDS011;40632;51.442;11.936;2022-09-27T06:58:31;3.20;;;0.70;;
54735;SDS011;40632;51.442;11.936;2022-09-27T07:00:56;1.33;;;0.80;;
54735;SDS011;40632;51.442;11.936;2022-09-27T07:03:25;1.70;;;0.93;;
54735;SDS011;40632;51.442;11.936;2022-09-27T07:05:54;2.00;;;0.75;;
54735;SDS011;40632;51.442;11.936;2022-09-27T07:08:20;1.08;;;0.70;;
54735;SDS011;40632;51.442;11.936;2022-09-27T07:10:45;1.55;;;0.90;;
54735;SDS011;40632;51.442;11.936;2022-09-27T07:13:11;1.60;;;0.60;;
54735;SDS011;40632;51.442;11.936;2022-09-27T07:15:37;1.08;;;0.60;;
54735;SDS011;40632;51.442;11.936;2022-09-27T07:18:05;0.60;;;0.47;;
54735;SDS011;40632;51.442;11.936;2022-09-27T07:20:34;0.65;;;0.57;;
54735;SDS011;40632;51.442;11.936;2022-09-27T07:23:00;3.03;;;0.70;;
54735;SDS011;40632;51.442;11.936;2022-09-27T07:25:26;0.68;;;0.60;;
54735;SDS011;40632;51.442;11.936;2022-09-27T07:27:51;0.68;;;0.50;;
54735;SDS011;40632;51.442;11.936;2022-09-27T07:30:17;1.98;;;0.70;;
54735;SDS011;40632;51.442;11.936;2022-09-27T07:32:44;0.80;;;0.47;;
54735;SDS011;40632;51.442;11.936;2022-09-27T07:35:10;0.60;;;0.50;;
54735;SDS011;40632;51.442;11.936;2022-09-27T07:37:39;1.02;;;0.77;;
54735;SDS011;40632;51.442;11.936;2022-09-27T07:40:06;1.35;;;0.50;;
54735;SDS011;40632;51.442;11.936;2022-09-27T07:42:33;0.93;;;0.60;;
54735;SDS011;40632;51.442;11.936;2022-09-27T07:44:59;1.83;;;0.40;;
54735;SDS011;40632;51.442;11.936;2022-09-27T07:47:25;1.58;;;0.60;;
54735;SDS011;40632;51.442;11.936;2022-09-27T07:49:50;3.28;;;0.60;;
54735;SDS011;40632;51.442;11.936;2022-09-27T07:52:16;2.72;;;0.77;;
54735;SDS011;40632;51.442;11.936;2022-09-27T07:54:44;1.63;;;0.68;;
54735;SDS011;40632;51.442;11.936;2022-09-27T07:57:10;0.60;;;0.50;;
54735;SDS011;40632;51.442;11.936;2022-09-27T07:59:36;0.77;;;0.60;;
54735;SDS011;40632;51.442;11.936;2022-09-27T08:02:02;0.68;;;0.40;;
54735;SDS011;40632;51.442;11.936;2022-09-27T08:04:27;1.40;;;0.50;;
54735;SDS011;40632;51.442;11.936;2022-09-27T08:06:53;1.45;;;0.45;;
54735;SDS011;40632;51.442;11.936;2022-09-27T08:09:19;1.48;;;0.50;;
54735;SDS011;40632;51.442;11.936;2022-09-27T08:11:48;1.75;;;0.60;;
54735;SDS011;40632;51.442;11.936;2022-09-27T08:14:13;1.40;;;0.50;;
54735;SDS011;40632;51.442;11.936;2022-09-27T08:16:39;1.75;;;0.40;;
54735;SDS011;40632;51.442;11.936;2022-09-27T08:19:04;1.13;;;0.60;;
54735;SDS011;40632;51.442;11.936;2022-09-27T08:21:30;0.68;;;0.47;;
54735;SDS011;40632;51.442;11.936;2022-09-27T08:23:56;3.15;;;0.50;;
54735;SDS011;40632;51.442;11.936;2022-09-27T08:26:22;0.80;;;0.60;;
54735;SDS011;40632;51.442;11.936;2022-09-27T08:28:50;1.15;;;0.40;;
54735;SDS011;40632;51.442;11.936;2022-09-27T08:31:15;2.95;;;0.50;;
54735;SDS011;40632;51.442;11.936;2022-09-27T08:33:41;2.03;;;0.60;;
54735;SDS011;40632;51.442;11.936;2022-09-27T08:36:09;0.63;;;0.40;;
54735;SDS011;40632;51.442;11.936;2022-09-27T08:38:35;1.25;;;0.50;;
54735;SDS011;40632;51.442;11.936;2022-09-27T08:41:03;0.60;;;0.40;;
54735;SDS011;40632;51.442;11.936;2022-09-27T08:43:33;0.35;;;0.32;;
54735;SDS011;40632;51.442;11.936;2022-09-27T08:46:12;2.22;;;0.43;;
54735;SDS011;40632;51.442;11.936;2022-09-27T08:48:50;0.82;;;0.50;;
54735;SDS011;40632;51.442;11.936;2022-09-27T08:51:23;0.75;;;0.38;;
54735;SDS011;40632;51.442;11.936;2022-09-27T08:53:54;2.08;;;0.80;;
54735;SDS011;40632;51.442;11.936;2022-09-27T08:56:25;3.13;;;0.47;;
54735;SDS011;40632;51.442;11.936;2022-09-27T08:58:51;0.40;;;0.40;;
54735;SDS011;40632;51.442;11.936;2022-09-27T09:01:26;1.27;;;0.40;;
54735;SDS011;40632;51.442;11.936;2022-09-27T09:03:52;0.80;;;0.50;;
54735;SDS011;40632;51.442;11.936;2022-09-27T09:06:21;3.05;;;0.57;;
54735;SDS011;40632;51.442;11.936;2022-09-27T09:08:53;1.75;;;0.50;;
54735;SDS011;40632;51.442;11.936;2022-09-27T09:11:30;3.13;;;0.60;;
54735;SDS011;40632;51.442;11.936;2022-09-27T09:14:07;2.92;;;0.60;;
54735;SDS011;40632;51.442;11.936;2022-09-27T09:16:51;2.17;;;0.70;;
54735;SDS011;40632;51.442;11.936;2022-09-27T09:19:34;1.63;;;0.60;;
54735;SDS011;40632;51.442;11.936;2022-09-27T09:22:14;2.45;;;0.60;;
54735;SDS011;40632;51.442;11.936;2022-09-27T09:24:55;1.75;;;0.60;;
54735;SDS011;40632;51.442;11.936;2022-09-27T09:27:32;1.60;;;0.52;;
54735;SDS011;40632;51.442;11.936;2022-09-27T09:30:16;1.65;;;0.40;;
54735;SDS011;40632;51.442;11.936;2022-09-27T09:32:50;3.53;;;0.82;;
54735;SDS011;40632;51.442;11.936;2022-09-27T09:35:26;2.25;;;0.60;;
54735;SDS011;40632;51.442;11.936;2022-09-27T09:37:59;2.08;;;0.70;;
54735;SDS011;40632;51.442;11.936;2022-09-27T09:40:30;0.95;;;0.50;;
54735;SDS011;40632;51.442;11.936;2022-09-27T09:43:01;3.17;;;0.50;;
54735;SDS011;40632;51.442;11.936;2022-09-27T09:45:30;0.43;;;0.43;;
54735;SDS011;40632;51.442;11.936;2022-09-27T09:48:02;1.55;;;0.50;;
54735;SDS011;40632;51.442;11.936;2022-09-27T09:50:33;1.90;;;0.60;;
54735;SDS011;40632;51.442;11.936;2022-09-27T09:53:04;0.95;;;0.50;;
54735;SDS011;40632;51.442;11.936;2022-09-27T09:55:37;1.25;;;0.50;;
54735;SDS011;40632;51.442;11.936;2022-09-27T09:58:09;0.57;;;0.40;;
54735;SDS011;40632;51.442;11.936;2022-09-27T10:00:41;0.95;;;0.50;;
54735;SDS011;40632;51.442;11.936;2022-09-27T10:03:11;2.38;;;0.57;;
54735;SDS011;40632;51.442;11.936;2022-09-27T10:05:36;0.90;;;0.50;;
54735;SDS011;40632;51.442;11.936;2022-09-27T10:08:03;2.05;;;0.80;;
54735;SDS011;40632;51.442;11.936;2022-09-27T10:10:31;1.73;;;0.60;;
54735;SDS011;40632;51.442;11.936;2022-09-27T10:12:58;0.65;;;0.43;;
54735;SDS011;40632;51.442;11.936;2022-09-27T10:15:27;2.30;;;0.65;;
54735;SDS011;40632;51.442;11.936;2022-09-27T10:17:55;1.65;;;0.40;;
54735;SDS011;40632;51.442;11.936;2022-09-27T10:20:30;2.53;;;0.57;;
54735;SDS011;40632;51.442;11.936;2022-09-27T10:23:02;2.83;;;0.60;;
54735;SDS011;40632;51.442;11.936;2022-09-27T10:25:44;0.75;;;0.50;;
54735;SDS011;40632;51.442;11.936;2022-09-27T10:28:25;2.28;;;0.57;;
54735;SDS011;40632;51.442;11.936;2022-09-27T10:30:54;0.65;;;0.57;;
54735;SDS011;40632;51.442;11.936;2022-09-27T10:33:20;1.70;;;0.40;;
54735;SDS011;40632;51.442;11.936;2022-09-27T10:35:49;1.33;;;0.50;;
54735;SDS011;40632;51.442;11.936;2022-09-27T10:38:22;1.50;;;0.60;;
54735;SDS011;40632;51.442;11.936;2022-09-27T10:40:50;1.40;;;0.55;;
54735;SDS011;40632;51.442;11.936;2022-09-27T10:43:30;2.25;;;0.65;;
54735;SDS011;40632;51.442;11.936;2022-09-27T10:45:58;0.68;;;0.50;;
54735;SDS011;40632;51.442;11.936;2022-09-27T10:48:27;1.40;;;0.50;;
54735;SDS011;40632;51.442;11.936;2022-09-27T10:50:58;2.17;;;0.60;;
54735;SDS011;40632;51.442;11.936;2022-09-27T10:53:25;2.00;;;0.60;;
54735;SDS011;40632;51.442;11.936;2022-09-27T10:55:53;2.03;;;0.95;;
54735;SDS011;40632;51.442;11.936;2022-09-27T10:58:23;1.80;;;0.90;;
54735;SDS011;40632;51.442;11.936;2022-09-27T11:00:55;2.15;;;0.57;;
54735;SDS011;40632;51.442;11.936;2022-09-27T11:03:22;1.20;;;0.55;;
54735;SDS011;40632;51.442;11.936;2022-09-27T11:05:49;1.05;;;0.50;;
54735;SDS011;40632;51.442;11.936;2022-09-27T11:08:22;0.38;;;0.38;;
54735;SDS011;40632;51.442;11.936;2022-09-27T11:10:59;1.17;;;0.55;;
54735;SDS011;40632;51.442;11.936;2022-09-27T11:13:40;0.95;;;0.40;;
54735;SDS011;40632;51.442;11.936;2022-09-27T11:16:23;1.23;;;0.50;;
54735;SDS011;40632;51.442;11.936;2022-09-27T11:19:03;0.95;;;0.70;;
54735;SDS011;40632;51.442;11.936;2022-09-27T11:21:40;0.70;;;0.65;;
54735;SDS011;40632;51.442;11.936;2022-09-27T11:24:19;1.10;;;0.70;;
54735;SDS011;40632;51.442;11.936;2022-09-27T11:26:53;1.38;;;0.80;;
54735;SDS011;40632;51.442;11.936;2022-09-27T11:29:29;1.25;;;0.70;;
54735;SDS011;40632;51.442;11.936;2022-09-27T11:32:07;1.90;;;0.85;;
54735;SDS011;40632;51.442;11.936;2022-09-27T11:37:34;1.48;;;0.80;;
54735;SDS011;40632;51.442;11.936;2022-09-27T11:40:13;6.05;;;1.60;;
54735;SDS011;40632;51.442;11.936;2022-09-27T11:45:52;3.40;;;1.30;;
54735;SDS011;40632;51.442;11.936;2022-09-27T11:48:28;4.05;;;1.50;;
54735;SDS011;40632;51.442;11.936;2022-09-27T11:51:11;4.77;;;1.90;;
54735;SDS011;40632;51.442;11.936;2022-09-27T11:53:55;2.78;;;1.60;;
54735;SDS011;40632;51.442;11.936;2022-09-27T11:56:35;2.92;;;1.73;;
54735;SDS011;40632;51.442;11.936;2022-09-27T11:59:13;2.55;;;1.65;;
54735;SDS011;40632;51.442;11.936;2022-09-27T12:01:54;2.38;;;1.20;;
54735;SDS011;40632;51.442;11.936;2022-09-27T12:07:16;3.42;;;1.10;;
54735;SDS011;40632;51.442;11.936;2022-09-27T12:09:49;1.60;;;1.10;;
54735;SDS011;40632;51.442;11.936;2022-09-27T12:12:20;2.72;;;1.02;;
54735;SDS011;40632;51.442;11.936;2022-09-27T12:14:51;2.35;;;1.00;;
54735;SDS011;40632;51.442;11.936;2022-09-27T12:17:21;2.58;;;0.90;;
54735;SDS011;40632;51.442;11.936;2022-09-27T12:19:50;2.22;;;0.70;;
54735;SDS011;40632;51.442;11.936;2022-09-27T12:22:19;2.08;;;0.80;;
54735;SDS011;40632;51.442;11.936;2022-09-27T12:24:51;3.75;;;0.77;;
54735;SDS011;40632;51.442;11.936;2022-09-27T12:27:22;2.20;;;0.60;;
54735;SDS011;40632;51.442;11.936;2022-09-27T12:29:55;1.55;;;0.80;;
54735;SDS011;40632;51.442;11.936;2022-09-27T12:32:24;1.48;;;0.68;;
54735;SDS011;40632;51.442;11.936;2022-09-27T12:34:55;3.40;;;0.77;;
54735;SDS011;40632;51.442;11.936;2022-09-27T12:37:26;1.67;;;0.70;;
54735;SDS011;40632;51.442;11.936;2022-09-27T12:39:57;1.50;;;0.95;;
54735;SDS011;40632;51.442;11.936;2022-09-27T12:42:30;2.05;;;0.60;;
54735;SDS011;40632;51.442;11.936;2022-09-27T12:45:00;2.30;;;0.70;;
54735;SDS011;40632;51.442;11.936;2022-09-27T12:47:30;2.95;;;0.80;;
54735;SDS011;40632;51.442;11.936;2022-09-27T12:50:13;3.75;;;1.02;;
54735;SDS011;40632;51.442;11.936;2022-09-27T12:52:48;2.47;;;0.80;;
54735;SDS011;40632;51.442;11.936;2022-09-27T12:55:28;1.95;;;0.80;;
54735;SDS011;40632;51.442;11.936;2022-09-27T12:58:19;2.45;;;0.82;;
54735;SDS011;40632;51.442;11.936;2022-09-27T13:01:06;1.05;;;0.75;;
54735;SDS011;40632;51.442;11.936;2022-09-27T13:03:48;2.35;;;1.20;;
54735;SDS011;40632;51.442;11.936;2022-09-27T13:06:32;3.75;;;1.00;;
54735;SDS011;40632;51.442;11.936;2022-09-27T13:12:06;1.60;;;1.00;;
54735;SDS011;40632;51.442;11.936;2022-09-27T13:14:38;2.60;;;1.10;;
54735;SDS011;40632;51.442;11.936;2022-09-27T13:19:57;2.15;;;0.75;;
54735;SDS011;40632;51.442;11.936;2022-09-27T13:22:36;2.15;;;1.00;;
54735;SDS011;40632;51.442;11.936;2022-09-27T13:27:59;1.10;;;0.90;;
54735;SDS011;40632;51.442;11.936;2022-09-27T13:33:20;3.33;;;1.10;;
54735;SDS011;40632;51.442;11.936;2022-09-27T13:41:53;2.60;;;1.10;;
54735;SDS011;40632;51.442;11.936;2022-09-27T13:44:38;2.22;;;0.93;;
54735;SDS011;40632;51.442;11.936;2022-09-27T13:47:19;2.08;;;0.80;;
54735;SDS011;40632;51.442;11.936;2022-09-27T13:49:54;2.58;;;0.95;;
54735;SDS011;40632;51.442;11.936;2022-09-27T13:52:27;1.40;;;0.93;;
54735;SDS011;40632;51.442;11.936;2022-09-27T13:54:56;1.20;;;0.85;;
54735;SDS011;40632;51.442;11.936;2022-09-27T14:00:11;1.67;;;0.80;;
54735;SDS011;40632;51.442;11.936;2022-09-27T14:02:44;1.63;;;0.70;;
54735;SDS011;40632;51.442;11.936;2022-09-27T14:05:19;1.95;;;0.55;;
54735;SDS011;40632;51.442;11.936;2022-09-27T14:07:50;0.98;;;0.32;;
54735;SDS011;40632;51.442;11.936;2022-09-27T14:10:17;1.05;;;0.50;;
54735;SDS011;40632;51.442;11.936;2022-09-27T14:12:45;1.58;;;0.40;;
54735;SDS011;40632;51.442;11.936;2022-09-27T14:15:15;0.95;;;0.40;;
54735;SDS011;40632;51.442;11.936;2022-09-27T14:17:47;1.38;;;0.60;;
54735;SDS011;40632;51.442;11.936;2022-09-27T14:22:58;5.35;;;0.88;;
54735;SDS011;40632;51.442;11.936;2022-09-27T14:25:24;2.65;;;0.90;;
54735;SDS011;40632;51.442;11.936;2022-09-27T14:27:50;1.55;;;0.50;;
54735;SDS011;40632;51.442;11.936;2022-09-27T14:30:16;2.10;;;0.47;;
54735;SDS011;40632;51.442;11.936;2022-09-27T14:32:48;2.03;;;0.60;;
54735;SDS011;40632;51.442;11.936;2022-09-27T14:35:15;1.95;;;0.70;;
54735;SDS011;40632;51.442;11.936;2022-09-27T14:37:42;1.65;;;0.75;;
54735;SDS011;40632;51.442;11.936;2022-09-27T14:40:17;1.30;;;0.60;;
54735;SDS011;40632;51.442;11.936;2022-09-27T14:42:44;0.82;;;0.50;;
54735;SDS011;40632;51.442;11.936;2022-09-27T14:45:13;1.95;;;0.60;;
54735;SDS011;40632;51.442;11.936;2022-09-27T14:47:45;2.10;;;0.50;;
54735;SDS011;40632;51.442;11.936;2022-09-27T14:50:16;1.02;;;0.50;;
54735;SDS011;40632;51.442;11.936;2022-09-27T14:52:44;1.10;;;0.55;;
54735;SDS011;40632;51.442;11.936;2022-09-27T14:55:13;1.33;;;0.50;;
54735;SDS011;40632;51.442;11.936;2022-09-27T14:57:44;3.47;;;0.80;;
54735;SDS011;40632;51.442;11.936;2022-09-27T15:00:16;1.13;;;0.60;;
54735;SDS011;40632;51.442;11.936;2022-09-27T15:02:44;2.58;;;1.27;;
54735;SDS011;40632;51.442;11.936;2022-09-27T15:05:14;0.52;;;0.50;;
54735;SDS011;40632;51.442;11.936;2022-09-27T15:07:41;1.67;;;0.60;;
54735;SDS011;40632;51.442;11.936;2022-09-27T15:10:11;2.20;;;0.85;;
54735;SDS011;40632;51.442;11.936;2022-09-27T15:12:37;3.25;;;0.70;;
54735;SDS011;40632;51.442;11.936;2022-09-27T15:15:03;1.10;;;0.68;;
54735;SDS011;40632;51.442;11.936;2022-09-27T15:17:39;1.10;;;0.57;;
54735;SDS011;40632;51.442;11.936;2022-09-27T15:20:20;1.63;;;0.60;;
54735;SDS011;40632;51.442;11.936;2022-09-27T15:22:47;1.02;;;0.50;;
54735;SDS011;40632;51.442;11.936;2022-09-27T15:25:14;1.30;;;0.52;;
54735;SDS011;40632;51.442;11.936;2022-09-27T15:27:46;0.77;;;0.60;;
54735;SDS011;40632;51.442;11.936;2022-09-27T15:30:15;2.45;;;0.70;;